Ballston Center, New York
Current Conditions -  °F | °C
As of 6:51 AM on Saturday 25 Oct 2014 (Local Time) from KALB Reporting Station
Few Clouds Few Clouds  
Wind Chill: 45°   Ceiling: Unl
Heat Index: 45°   Visibility: 10mi
Dew Point: 41°   Wind: 3mph
Humidity: 86%   Direction: 270°W
Pressure: 29.84"   Gusts: NA
Location:  43.002°N, 73.8759°W
Report Text: KALB 251051Z 27003KT 10SM FEW030 FEW230 07/05 A2984 RMK AO2 SLP105 T00720050 $
Loading
Personal Weather Stations






























Interactive Weather Map
Tropical Storm Tracking
New forecast layout! Learn more

10-Day Weather Forecast

Advertisements
Track Severe Weather on mobile